Time;durP1;ratioP1;P1;durP2;ratioP2;P2;SDS_P1;SDS_P2;PMS_P1;PMS_P2;Temp;Humidity;BMP_temperature;BMP_pressure;BME280_temperature;BME280_humidity;BME280_pressure;Samples;Min_cycle;Max_cycle;Signal;HPM_P1;HPM_P2
2020/12/31 00:01:37;;;;;;;104.20;29.93;;;;;;;;;;653317;214;919242;-68
2020/12/31 00:04:03;;;;;;;112.77;30.60;;;;;;;;;;649998;214;2352410;-69
2020/12/31 00:06:29;;;;;;;106.22;33.20;;;;;;;;;;654095;213;918600;-69
2020/12/31 00:08:55;;;;;;;124.03;32.47;;;;;;;;;;652681;214;918667;-70
2020/12/31 00:11:20;;;;;;;101.30;32.40;;;;;;;;;;653020;212;918284;-69
2020/12/31 00:13:46;;;;;;;105.23;31.10;;;;;;;;;;659394;214;918920;-70
2020/12/31 00:16:12;;;;;;;106.63;35.57;;;;;;;;;;653735;212;918525;-69
2020/12/31 00:18:38;;;;;;;151.80;37.50;;;;;;;;;;655761;213;919001;-69
2020/12/31 00:21:04;;;;;;;225.43;41.83;;;;;;;;;;656057;214;918655;-68
2020/12/31 00:23:30;;;;;;;111.40;32.73;;;;;;;;;;649097;214;919014;-70
2020/12/31 00:25:56;;;;;;;99.45;35.05;;;;;;;;;;643754;214;918543;-70
2020/12/31 00:28:22;;;;;;;128.93;34.40;;;;;;;;;;657664;212;916297;-69
2020/12/31 00:30:47;;;;;;;139.80;37.63;;;;;;;;;;652261;211;916009;-70
2020/12/31 00:33:13;;;;;;;197.17;45.60;;;;;;;;;;655351;213;927428;-69
2020/12/31 00:35:39;;;;;;;184.48;40.12;;;;;;;;;;653644;211;918313;-68
2020/12/31 00:38:05;;;;;;;126.60;34.87;;;;;;;;;;656729;214;918879;-68
2020/12/31 00:40:31;;;;;;;127.77;30.90;;;;;;;;;;651621;214;919295;-68
2020/12/31 00:42:56;;;;;;;141.53;31.07;;;;;;;;;;655589;214;917548;-69
2020/12/31 00:45:22;;;;;;;93.90;29.05;;;;;;;;;;657817;214;918509;-69
2020/12/31 00:47:48;;;;;;;115.73;31.53;;;;;;;;;;654187;212;919167;-69
2020/12/31 00:50:14;;;;;;;150.77;33.93;;;;;;;;;;654507;214;919672;-69
2020/12/31 00:52:40;;;;;;;153.83;34.73;;;;;;;;;;655810;213;911877;-69
2020/12/31 00:55:06;;;;;;;163.70;29.03;;;;;;;;;;655810;212;918802;-69
2020/12/31 00:57:32;;;;;;;230.57;34.97;;;;;;;;;;652778;212;918077;-69
2020/12/31 00:59:57;;;;;;;202.10;33.37;;;;;;;;;;659248;214;918872;-69
2020/12/31 01:02:23;;;;;;;228.10;37.23;;;;;;;;;;652583;212;918962;-69
2020/12/31 01:04:49;;;;;;;195.60;35.90;;;;;;;;;;654346;212;917953;-70
2020/12/31 01:07:16;;;;;;;204.23;32.07;;;;;;;;;;651503;213;918962;-70
2020/12/31 01:09:42;;;;;;;215.30;34.90;;;;;;;;;;655029;214;918166;-70
2020/12/31 01:12:08;;;;;;;166.93;32.30;;;;;;;;;;652169;213;918600;-69
2020/12/31 01:14:33;;;;;;;183.97;29.23;;;;;;;;;;651538;213;918653;-69
2020/12/31 01:16:59;;;;;;;188.93;31.63;;;;;;;;;;656224;213;918092;-70
2020/12/31 01:19:25;;;;;;;172.10;26.73;;;;;;;;;;654231;212;918464;-70
2020/12/31 01:21:51;;;;;;;150.80;26.23;;;;;;;;;;651975;212;1229364;-70
2020/12/31 01:24:17;;;;;;;126.87;25.40;;;;;;;;;;658141;214;917250;-69
2020/12/31 01:26:43;;;;;;;118.77;24.57;;;;;;;;;;654296;212;919000;-70
2020/12/31 01:29:08;;;;;;;109.50;26.40;;;;;;;;;;651608;214;918339;-70
2020/12/31 01:31:34;;;;;;;130.80;28.27;;;;;;;;;;654687;214;918266;-69
2020/12/31 01:34:00;;;;;;;218.30;31.03;;;;;;;;;;652560;213;916814;-71
2020/12/31 01:36:26;;;;;;;142.67;28.13;;;;;;;;;;654370;212;918356;-70
2020/12/31 01:38:52;;;;;;;133.73;28.80;;;;;;;;;;651740;212;918827;-70
2020/12/31 01:41:25;;;;;;;146.57;28.80;;;;;;;;;;659463;212;919157;-70
2020/12/31 01:43:57;;;;;;;110.33;28.40;;;;;;;;;;655298;212;919515;-70
2020/12/31 01:46:23;;;;;;;184.53;35.20;;;;;;;;;;656261;213;918549;-70
2020/12/31 01:48:48;;;;;;;134.03;32.77;;;;;;;;;;652764;212;919510;-70
2020/12/31 01:51:14;;;;;;;66.80;28.45;;;;;;;;;;659202;214;918636;-70
2020/12/31 01:53:40;;;;;;;92.20;27.23;;;;;;;;;;652919;212;920715;-70
2020/12/31 01:56:06;;;;;;;112.60;35.47;;;;;;;;;;654787;212;918486;-70
2020/12/31 01:58:32;;;;;;;98.20;30.23;;;;;;;;;;656970;213;919287;-71
2020/12/31 02:00:58;;;;;;;90.67;37.13;;;;;;;;;;654926;213;919924;-71
2020/12/31 02:03:24;;;;;;;93.00;42.07;;;;;;;;;;648058;213;917379;-70
2020/12/31 02:05:50;;;;;;;115.25;46.28;;;;;;;;;;656678;213;921854;-70
2020/12/31 02:08:16;;;;;;;101.87;49.87;;;;;;;;;;654848;213;918498;-71
2020/12/31 02:10:42;;;;;;;74.47;34.83;;;;;;;;;;651500;212;944811;-70
2020/12/31 02:13:08;;;;;;;82.97;40.77;;;;;;;;;;653903;213;918669;-71
2020/12/31 02:15:34;;;;;;;58.37;33.97;;;;;;;;;;655198;212;918534;-70
2020/12/31 02:18:00;;;;;;;68.00;34.00;;;;;;;;;;654282;213;918781;-70
2020/12/31 02:20:25;;;;;;;77.17;34.70;;;;;;;;;;653531;213;916216;-71
2020/12/31 02:22:51;;;;;;;157.32;31.17;;;;;;;;;;659817;214;919008;-70
2020/12/31 02:25:17;;;;;;;104.40;32.87;;;;;;;;;;651484;213;918848;-70
2020/12/31 02:27:43;;;;;;;79.17;26.70;;;;;;;;;;655062;212;918802;-71
2020/12/31 02:30:09;;;;;;;88.37;30.60;;;;;;;;;;660604;212;918017;-71
2020/12/31 02:32:35;;;;;;;88.53;31.10;;;;;;;;;;655461;213;923117;-70
2020/12/31 02:35:00;;;;;;;74.17;29.10;;;;;;;;;;651812;211;919016;-70
2020/12/31 02:37:26;;;;;;;72.53;32.50;;;;;;;;;;653724;213;1021327;-69
2020/12/31 02:39:52;;;;;;;79.20;30.90;;;;;;;;;;656402;213;918373;-70
2020/12/31 02:42:18;;;;;;;78.13;32.47;;;;;;;;;;653641;214;920739;-70
2020/12/31 02:44:44;;;;;;;105.95;34.15;;;;;;;;;;653306;213;918819;-71
2020/12/31 02:47:10;;;;;;;115.12;38.42;;;;;;;;;;657603;212;918029;-70
2020/12/31 02:49:35;;;;;;;118.80;36.93;;;;;;;;;;653345;212;918951;-70
2020/12/31 02:52:01;;;;;;;102.57;34.10;;;;;;;;;;652138;211;918675;-70
2020/12/31 02:54:27;;;;;;;88.90;35.37;;;;;;;;;;660630;212;916159;-69
2020/12/31 02:56:53;;;;;;;70.10;31.67;;;;;;;;;;651781;212;914350;-71
2020/12/31 02:59:19;;;;;;;68.50;31.17;;;;;;;;;;654735;212;915525;-70
2020/12/31 03:01:46;;;;;;;63.78;29.73;;;;;;;;;;658612;213;918992;-70
2020/12/31 03:04:11;;;;;;;72.47;31.77;;;;;;;;;;657794;214;914986;-70
2020/12/31 03:06:37;;;;;;;59.53;26.70;;;;;;;;;;652675;210;919538;-70
2020/12/31 03:09:03;;;;;;;54.73;27.40;;;;;;;;;;655045;212;917622;-70
2020/12/31 03:11:29;;;;;;;52.67;28.97;;;;;;;;;;656605;214;919942;-71
2020/12/31 03:13:55;;;;;;;51.23;26.17;;;;;;;;;;653822;213;918089;-70
2020/12/31 03:16:21;;;;;;;62.85;32.33;;;;;;;;;;652284;212;1042387;-71
2020/12/31 03:18:46;;;;;;;61.67;28.83;;;;;;;;;;659074;214;917764;-69
2020/12/31 03:21:12;;;;;;;64.77;27.00;;;;;;;;;;654003;214;920513;-70
2020/12/31 03:23:38;;;;;;;77.43;28.00;;;;;;;;;;651271;213;919884;-70
2020/12/31 03:26:04;;;;;;;54.77;29.87;;;;;;;;;;659106;214;914106;-70
2020/12/31 03:28:30;;;;;;;72.43;30.70;;;;;;;;;;652911;212;911997;-70
2020/12/31 03:30:56;;;;;;;72.47;30.42;;;;;;;;;;654107;213;915639;-70
2020/12/31 03:33:21;;;;;;;83.37;32.67;;;;;;;;;;651328;212;1120560;-70
2020/12/31 03:35:47;;;;;;;107.60;31.00;;;;;;;;;;655939;214;916166;-70
2020/12/31 03:38:13;;;;;;;88.40;31.60;;;;;;;;;;648481;212;1549796;-70
2020/12/31 03:40:39;;;;;;;67.97;31.70;;;;;;;;;;648746;212;915733;-69
2020/12/31 03:43:05;;;;;;;75.72;31.87;;;;;;;;;;655039;214;915688;-69
2020/12/31 03:45:31;;;;;;;64.20;30.37;;;;;;;;;;652467;213;915538;-68
2020/12/31 03:47:56;;;;;;;61.83;29.60;;;;;;;;;;651057;212;908308;-68
2020/12/31 03:50:22;;;;;;;58.50;30.23;;;;;;;;;;659530;214;928341;-68
2020/12/31 03:52:48;;;;;;;57.40;29.47;;;;;;;;;;654017;213;915383;-68
2020/12/31 03:55:14;;;;;;;65.13;29.83;;;;;;;;;;654178;213;915865;-68
2020/12/31 03:57:42;;;;;;;58.87;28.87;;;;;;;;;;659053;212;915207;-69
2020/12/31 04:00:08;;;;;;;59.83;27.27;;;;;;;;;;654744;214;918192;-68
2020/12/31 04:02:33;;;;;;;56.73;28.87;;;;;;;;;;654405;214;917870;-67
2020/12/31 04:04:59;;;;;;;68.90;31.57;;;;;;;;;;654526;211;922248;-66
2020/12/31 04:07:25;;;;;;;71.07;30.90;;;;;;;;;;660573;213;919249;-67
2020/12/31 04:09:51;;;;;;;54.33;27.37;;;;;;;;;;652000;213;919227;-68
2020/12/31 04:12:17;;;;;;;64.70;27.92;;;;;;;;;;653789;214;918732;-67
2020/12/31 04:14:43;;;;;;;76.57;30.03;;;;;;;;;;654274;213;918923;-67
2020/12/31 04:17:08;;;;;;;57.83;26.37;;;;;;;;;;654885;214;1154627;-68
2020/12/31 04:19:34;;;;;;;75.77;28.93;;;;;;;;;;652987;212;912779;-68
2020/12/31 04:22:00;;;;;;;62.85;27.83;;;;;;;;;;659231;214;913943;-67
2020/12/31 04:24:26;;;;;;;63.97;25.47;;;;;;;;;;649199;213;919287;-67
2020/12/31 04:26:52;;;;;;;91.47;26.80;;;;;;;;;;654467;212;918110;-67
2020/12/31 04:29:18;;;;;;;112.40;27.60;;;;;;;;;;651889;213;920611;-66
2020/12/31 04:31:44;;;;;;;96.33;23.47;;;;;;;;;;656322;213;915331;-68
2020/12/31 04:34:10;;;;;;;86.60;27.23;;;;;;;;;;650279;212;917186;-67
2020/12/31 04:36:35;;;;;;;78.33;25.30;;;;;;;;;;657103;212;909671;-67
2020/12/31 04:39:01;;;;;;;82.73;27.90;;;;;;;;;;660781;214;618683;-67
2020/12/31 04:41:27;;;;;;;131.07;28.80;;;;;;;;;;656612;212;630222;-66
2020/12/31 04:43:53;;;;;;;95.50;26.48;;;;;;;;;;656091;213;918671;-67
2020/12/31 04:46:19;;;;;;;60.40;24.47;;;;;;;;;;654966;213;919124;-67
2020/12/31 04:48:45;;;;;;;56.27;22.60;;;;;;;;;;655090;214;919175;-66
2020/12/31 04:51:10;;;;;;;59.90;24.57;;;;;;;;;;652452;212;919044;-67
2020/12/31 04:53:37;;;;;;;53.37;24.90;;;;;;;;;;651525;213;918467;-66
2020/12/31 04:56:02;;;;;;;65.00;26.00;;;;;;;;;;653159;214;919110;-68
2020/12/31 04:58:28;;;;;;;69.37;28.70;;;;;;;;;;654431;214;918858;-66
2020/12/31 05:00:54;;;;;;;65.53;28.15;;;;;;;;;;651587;214;924531;-67
2020/12/31 05:03:20;;;;;;;65.23;30.40;;;;;;;;;;658460;214;917809;-66
2020/12/31 05:05:46;;;;;;;56.60;29.03;;;;;;;;;;650701;212;1172621;-67
2020/12/31 05:08:12;;;;;;;60.23;30.57;;;;;;;;;;655013;214;919232;-66
2020/12/31 05:10:37;;;;;;;60.20;27.87;;;;;;;;;;656868;214;918899;-67
2020/12/31 05:13:03;;;;;;;64.97;28.83;;;;;;;;;;651017;214;919049;-68
2020/12/31 05:15:34;;;;;;;86.20;27.10;;;;;;;;;;654631;212;918040;-67
2020/12/31 05:18:15;;;;;;;76.47;28.17;;;;;;;;;;653013;212;919031;-67
2020/12/31 05:20:40;;;;;;;85.25;29.50;;;;;;;;;;655405;212;918891;-66
2020/12/31 05:23:11;;;;;;;121.57;29.63;;;;;;;;;;640388;218;917030;-67
2020/12/31 05:25:36;;;;;;;92.50;27.10;;;;;;;;;;638914;218;964021;-67
2020/12/31 05:28:02;;;;;;;102.40;29.50;;;;;;;;;;638186;218;1021068;-67
2020/12/31 05:30:28;;;;;;;64.18;26.55;;;;;;;;;;645064;218;918541;-66
2020/12/31 05:32:53;;;;;;;56.10;25.67;;;;;;;;;;637122;218;919079;-69
2020/12/31 05:35:19;;;;;;;78.75;29.27;;;;;;;;;;640947;218;918141;-68
2020/12/31 05:37:45;;;;;;;82.40;28.53;;;;;;;;;;641426;218;919139;-68
2020/12/31 05:40:11;;;;;;;75.77;31.77;;;;;;;;;;639763;219;918900;-68
2020/12/31 05:42:37;;;;;;;77.43;29.37;;;;;;;;;;638597;218;918811;-68
2020/12/31 05:45:07;;;;;;;83.83;33.07;;;;;;;;;;635582;219;919143;-67
2020/12/31 05:47:32;;;;;;;85.37;33.77;;;;;;;;;;654697;214;919352;-67
2020/12/31 05:49:58;;;;;;;84.57;31.77;;;;;;;;;;654674;212;919004;-68
2020/12/31 05:52:30;;;;;;;85.27;33.50;;;;;;;;;;651620;212;919309;-68
2020/12/31 05:54:56;;;;;;;98.87;31.05;;;;;;;;;;656455;213;918983;-67
2020/12/31 05:57:22;;;;;;;113.37;31.73;;;;;;;;;;653100;214;918649;-70
2020/12/31 05:59:48;;;;;;;97.83;31.03;;;;;;;;;;653642;214;919120;-68
2020/12/31 06:02:14;;;;;;;119.67;34.57;;;;;;;;;;653958;214;918849;-68
2020/12/31 06:04:44;;;;;;;125.07;33.27;;;;;;;;;;656374;212;919027;-69
2020/12/31 06:07:10;;;;;;;128.70;32.53;;;;;;;;;;655198;212;919792;-68
2020/12/31 06:09:36;;;;;;;95.07;32.60;;;;;;;;;;651375;214;918187;-68
2020/12/31 06:12:02;;;;;;;175.60;37.08;;;;;;;;;;655883;214;919687;-69
2020/12/31 06:14:28;;;;;;;143.33;38.80;;;;;;;;;;653260;213;919106;-68
2020/12/31 06:16:55;;;;;;;187.63;38.77;;;;;;;;;;658503;213;630103;-68
2020/12/31 06:19:22;;;;;;;183.83;38.50;;;;;;;;;;651677;214;918106;-68
2020/12/31 06:21:47;;;;;;;165.30;37.70;;;;;;;;;;655187;213;919199;-68
2020/12/31 06:24:13;;;;;;;123.37;30.53;;;;;;;;;;650532;214;918563;-68
2020/12/31 06:26:39;;;;;;;222.67;38.50;;;;;;;;;;653928;212;920445;-68
2020/12/31 06:29:05;;;;;;;164.20;31.63;;;;;;;;;;657749;213;918579;-68
2020/12/31 06:31:31;;;;;;;149.87;35.90;;;;;;;;;;655446;213;918489;-68
2020/12/31 06:33:57;;;;;;;214.17;38.23;;;;;;;;;;651894;212;919517;-69
2020/12/31 06:36:23;;;;;;;190.77;35.73;;;;;;;;;;659159;212;916549;-68
2020/12/31 06:38:48;;;;;;;199.20;41.27;;;;;;;;;;655300;212;915588;-69
2020/12/31 06:41:20;;;;;;;201.40;32.90;;;;;;;;;;652862;212;915361;-69
2020/12/31 06:43:46;;;;;;;246.73;33.53;;;;;;;;;;654442;212;919057;-69
2020/12/31 06:46:16;;;;;;;189.97;35.50;;;;;;;;;;656652;212;917030;-69
2020/12/31 06:48:41;;;;;;;188.37;33.60;;;;;;;;;;653020;213;918769;-69
2020/12/31 06:51:09;;;;;;;221.00;35.23;;;;;;;;;;651209;213;917898;-69
2020/12/31 06:53:36;;;;;;;143.00;30.13;;;;;;;;;;654299;214;918327;-70
2020/12/31 06:56:02;;;;;;;114.27;26.87;;;;;;;;;;654654;212;919519;-69
2020/12/31 06:58:27;;;;;;;96.30;29.80;;;;;;;;;;655713;212;920030;-68
2020/12/31 07:00:53;;;;;;;132.83;29.67;;;;;;;;;;652950;212;927757;-68
2020/12/31 07:03:25;;;;;;;132.73;27.17;;;;;;;;;;659130;213;1017083;-69
2020/12/31 07:05:51;;;;;;;134.10;32.67;;;;;;;;;;652554;212;914212;-69
2020/12/31 07:08:17;;;;;;;153.12;32.35;;;;;;;;;;654465;214;1016338;-69
2020/12/31 07:10:43;;;;;;;178.10;37.27;;;;;;;;;;654722;213;914337;-69
2020/12/31 07:13:08;;;;;;;148.77;36.40;;;;;;;;;;653705;213;918650;-69
2020/12/31 07:15:34;;;;;;;174.97;34.17;;;;;;;;;;646730;213;986823;-70
2020/12/31 07:18:00;;;;;;;182.33;34.67;;;;;;;;;;654135;213;918890;-68
2020/12/31 07:20:26;;;;;;;118.57;30.60;;;;;;;;;;658162;214;919015;-69
2020/12/31 07:22:52;;;;;;;175.67;34.67;;;;;;;;;;651698;213;918431;-69
2020/12/31 07:25:18;;;;;;;123.50;27.30;;;;;;;;;;652336;214;932659;-69
2020/12/31 07:27:43;;;;;;;172.63;33.77;;;;;;;;;;652403;213;918351;-69
2020/12/31 07:30:10;;;;;;;163.47;34.67;;;;;;;;;;654314;212;919199;-69
2020/12/31 07:32:42;;;;;;;142.90;31.00;;;;;;;;;;656993;212;627603;-69
2020/12/31 07:35:13;;;;;;;85.17;26.77;;;;;;;;;;653931;214;918721;-69
2020/12/31 07:37:39;;;;;;;105.90;28.80;;;;;;;;;;655296;212;918449;-68
2020/12/31 07:40:05;;;;;;;140.23;34.97;;;;;;;;;;657336;213;918112;-70
2020/12/31 07:42:31;;;;;;;122.63;30.60;;;;;;;;;;645469;212;2010336;-69
2020/12/31 07:44:57;;;;;;;120.00;32.43;;;;;;;;;;657600;214;1020760;-69
2020/12/31 07:47:23;;;;;;;140.33;31.27;;;;;;;;;;652549;213;918785;-69
2020/12/31 07:49:49;;;;;;;195.80;34.60;;;;;;;;;;656251;214;919017;-69
2020/12/31 07:52:14;;;;;;;147.13;35.17;;;;;;;;;;650626;214;918245;-69
2020/12/31 07:54:40;;;;;;;142.67;34.50;;;;;;;;;;656030;214;918830;-69
2020/12/31 07:57:06;;;;;;;239.47;48.37;;;;;;;;;;649990;213;999476;-73
2020/12/31 07:59:32;;;;;;;224.70;43.77;;;;;;;;;;654307;212;917329;-69
2020/12/31 08:02:05;;;;;;;227.70;40.07;;;;;;;;;;658537;213;918934;-69
2020/12/31 08:04:31;;;;;;;234.30;43.63;;;;;;;;;;649220;212;1432315;-69
2020/12/31 08:06:57;;;;;;;282.95;41.88;;;;;;;;;;652073;213;917996;-69
2020/12/31 08:09:23;;;;;;;314.40;46.50;;;;;;;;;;651507;213;918791;-69
2020/12/31 08:11:49;;;;;;;334.03;48.97;;;;;;;;;;655748;214;918588;-70
2020/12/31 08:14:14;;;;;;;316.03;49.10;;;;;;;;;;651742;212;917694;-69
2020/12/31 08:16:40;;;;;;;237.30;41.92;;;;;;;;;;654006;213;919171;-69
2020/12/31 08:19:06;;;;;;;249.00;41.33;;;;;;;;;;657062;213;918458;-70
2020/12/31 08:21:32;;;;;;;243.10;40.37;;;;;;;;;;652334;213;917984;-70
2020/12/31 08:23:58;;;;;;;156.13;34.13;;;;;;;;;;649491;212;917978;-70
2020/12/31 08:26:24;;;;;;;214.93;35.73;;;;;;;;;;658641;214;919059;-70
2020/12/31 08:28:50;;;;;;;227.93;34.57;;;;;;;;;;652909;212;918736;-70
2020/12/31 08:31:15;;;;;;;159.27;36.57;;;;;;;;;;655384;212;918290;-70
2020/12/31 08:33:41;;;;;;;176.63;33.75;;;;;;;;;;656547;214;860565;-69
2020/12/31 08:36:07;;;;;;;201.77;35.30;;;;;;;;;;652335;213;919275;-70
2020/12/31 08:38:35;;;;;;;204.33;30.70;;;;;;;;;;640293;214;1014110;-71
2020/12/31 08:41:01;;;;;;;267.40;46.20;;;;;;;;;;653628;214;919352;-70
2020/12/31 08:43:30;;;;;;;183.87;36.47;;;;;;;;;;658049;213;917892;-71
2020/12/31 08:45:57;;;;;;;177.50;30.60;;;;;;;;;;652750;212;918334;-72
2020/12/31 08:48:25;;;;;;;248.40;39.23;;;;;;;;;;654245;212;916375;-72
2020/12/31 08:50:56;;;;;;;177.60;31.52;;;;;;;;;;653759;212;1225772;-71
2020/12/31 08:53:22;;;;;;;170.13;31.93;;;;;;;;;;658078;213;810672;-72
2020/12/31 08:55:48;;;;;;;141.75;31.30;;;;;;;;;;654495;213;918516;-72
2020/12/31 08:58:14;;;;;;;235.40;42.50;;;;;;;;;;653278;214;1021294;-73
2020/12/31 09:00:40;;;;;;;162.73;33.17;;;;;;;;;;656560;212;918561;-72
2020/12/31 09:03:06;;;;;;;144.37;25.33;;;;;;;;;;652546;214;919178;-73
2020/12/31 09:05:32;;;;;;;132.77;28.40;;;;;;;;;;651723;212;918546;-73
2020/12/31 09:08:00;;;;;;;155.40;29.27;;;;;;;;;;653497;213;919220;-74
2020/12/31 09:10:27;;;;;;;135.97;27.30;;;;;;;;;;656265;212;653348;-73
2020/12/31 09:12:53;;;;;;;152.90;28.47;;;;;;;;;;656805;212;826946;-75
2020/12/31 09:15:18;;;;;;;109.07;23.05;;;;;;;;;;651025;212;918110;-72
2020/12/31 09:17:44;;;;;;;112.77;28.50;;;;;;;;;;657975;212;918681;-73
2020/12/31 09:20:10;;;;;;;110.57;26.00;;;;;;;;;;654646;213;926316;-73
2020/12/31 09:22:36;;;;;;;216.00;29.40;;;;;;;;;;653785;213;918316;-73
2020/12/31 09:25:08;;;;;;;76.77;24.67;;;;;;;;;;659750;213;918942;-73
2020/12/31 09:27:34;;;;;;;139.23;27.63;;;;;;;;;;657583;213;682922;-73
2020/12/31 09:30:00;;;;;;;119.47;25.77;;;;;;;;;;652437;213;918050;-73
2020/12/31 09:32:26;;;;;;;146.60;29.30;;;;;;;;;;650212;212;1254935;-73
2020/12/31 09:34:51;;;;;;;77.80;24.40;;;;;;;;;;658011;212;917932;-73
2020/12/31 09:37:17;;;;;;;149.73;28.23;;;;;;;;;;651308;213;918510;-71
2020/12/31 09:39:43;;;;;;;109.80;27.80;;;;;;;;;;653937;214;919513;-71
2020/12/31 09:42:09;;;;;;;170.57;29.63;;;;;;;;;;656911;214;919995;-71
2020/12/31 09:44:35;;;;;;;153.47;32.07;;;;;;;;;;658350;213;713637;-73
2020/12/31 09:47:01;;;;;;;356.00;53.53;;;;;;;;;;655467;213;915406;-71
2020/12/31 09:49:27;;;;;;;301.37;44.90;;;;;;;;;;660346;214;629788;-71
2020/12/31 09:51:52;;;;;;;145.63;35.33;;;;;;;;;;653193;213;917430;-70
2020/12/31 09:54:19;;;;;;;130.43;32.13;;;;;;;;;;654504;213;918411;-71
2020/12/31 09:56:45;;;;;;;140.97;32.63;;;;;;;;;;654845;212;646255;-71
2020/12/31 09:59:11;;;;;;;91.33;26.97;;;;;;;;;;659893;212;917429;-70
2020/12/31 10:01:37;;;;;;;158.17;30.60;;;;;;;;;;654937;213;918683;-71
2020/12/31 10:04:03;;;;;;;115.73;29.17;;;;;;;;;;651885;210;1021267;-70
2020/12/31 10:06:28;;;;;;;291.00;46.93;;;;;;;;;;660082;213;919360;-70
2020/12/31 10:08:54;;;;;;;134.73;27.07;;;;;;;;;;657617;213;712663;-70
2020/12/31 10:11:20;;;;;;;93.83;27.23;;;;;;;;;;657108;212;915297;-70
2020/12/31 10:13:46;;;;;;;91.47;26.60;;;;;;;;;;656658;212;921141;-71
2020/12/31 10:16:12;;;;;;;112.17;27.00;;;;;;;;;;655641;214;916660;-71
2020/12/31 10:18:38;;;;;;;281.27;49.70;;;;;;;;;;653832;212;915127;-70
2020/12/31 10:21:03;;;;;;;208.03;33.83;;;;;;;;;;653290;212;916207;-71
2020/12/31 10:23:29;;;;;;;351.90;62.13;;;;;;;;;;654062;214;916456;-72
2020/12/31 10:25:55;;;;;;;274.10;46.93;;;;;;;;;;651859;213;915126;-71
2020/12/31 10:28:21;;;;;;;235.57;47.80;;;;;;;;;;649873;214;919106;-68
2020/12/31 10:30:47;;;;;;;129.10;30.67;;;;;;;;;;659136;214;918910;-71
2020/12/31 10:33:13;;;;;;;177.13;39.23;;;;;;;;;;653015;214;918459;-71
2020/12/31 10:35:38;;;;;;;442.30;69.82;;;;;;;;;;654649;214;918637;-70
2020/12/31 10:38:05;;;;;;;184.17;35.93;;;;;;;;;;658065;214;1019529;-70
2020/12/31 10:40:30;;;;;;;279.70;50.73;;;;;;;;;;651780;212;1051983;-70
2020/12/31 10:42:56;;;;;;;252.57;49.20;;;;;;;;;;653473;213;918064;-70
2020/12/31 10:45:22;;;;;;;227.27;38.67;;;;;;;;;;655505;213;918344;-70
2020/12/31 10:47:48;;;;;;;216.77;45.73;;;;;;;;;;653626;213;917629;-69
2020/12/31 10:50:14;;;;;;;140.83;30.17;;;;;;;;;;650908;213;919075;-70
2020/12/31 10:52:40;;;;;;;129.60;28.40;;;;;;;;;;652836;214;918440;-68
2020/12/31 10:55:05;;;;;;;150.73;31.25;;;;;;;;;;656735;214;918746;-68
2020/12/31 10:57:31;;;;;;;92.57;25.07;;;;;;;;;;652416;212;1001603;-69
2020/12/31 10:59:57;;;;;;;150.68;37.35;;;;;;;;;;651657;212;988410;-68
2020/12/31 11:02:23;;;;;;;118.67;29.57;;;;;;;;;;660137;213;628344;-69
2020/12/31 11:04:49;;;;;;;205.27;36.20;;;;;;;;;;651895;212;918350;-68
2020/12/31 11:07:15;;;;;;;183.03;37.53;;;;;;;;;;655847;213;846548;-68
2020/12/31 11:09:41;;;;;;;147.17;34.90;;;;;;;;;;657916;212;638842;-68
2020/12/31 11:12:07;;;;;;;224.03;35.93;;;;;;;;;;656994;212;621153;-68
2020/12/31 11:14:34;;;;;;;238.12;37.28;;;;;;;;;;658173;212;616744;-68
2020/12/31 11:16:59;;;;;;;142.43;32.57;;;;;;;;;;657594;212;627989;-68
2020/12/31 11:19:26;;;;;;;222.27;37.90;;;;;;;;;;658350;214;631827;-68
2020/12/31 11:21:51;;;;;;;222.17;38.90;;;;;;;;;;654571;212;918949;-68
2020/12/31 11:24:17;;;;;;;182.57;34.30;;;;;;;;;;654568;213;918709;-68
2020/12/31 11:26:43;;;;;;;139.70;28.70;;;;;;;;;;658611;212;801789;-68
2020/12/31 11:29:09;;;;;;;157.83;28.20;;;;;;;;;;654996;212;917753;-69
2020/12/31 11:31:35;;;;;;;210.63;37.10;;;;;;;;;;652156;212;919154;-68
2020/12/31 11:34:00;;;;;;;213.50;33.97;;;;;;;;;;658608;214;928957;-68
2020/12/31 11:36:26;;;;;;;209.33;40.60;;;;;;;;;;651099;213;918606;-68
2020/12/31 11:38:52;;;;;;;206.33;43.10;;;;;;;;;;653363;212;916130;-68
2020/12/31 11:41:19;;;;;;;129.25;33.65;;;;;;;;;;655415;213;1024137;-67
2020/12/31 11:43:45;;;;;;;201.00;36.10;;;;;;;;;;657179;213;919043;-69
2020/12/31 11:46:11;;;;;;;146.63;30.67;;;;;;;;;;651921;212;929093;-68
2020/12/31 11:48:36;;;;;;;126.93;31.57;;;;;;;;;;654621;212;915146;-69
2020/12/31 11:51:02;;;;;;;161.10;32.80;;;;;;;;;;657221;214;914223;-68
2020/12/31 11:53:28;;;;;;;165.43;30.57;;;;;;;;;;653233;212;917004;-68
2020/12/31 11:55:54;;;;;;;166.03;32.30;;;;;;;;;;654042;213;918462;-69
2020/12/31 11:58:20;;;;;;;184.07;35.85;;;;;;;;;;656508;212;919505;-68
2020/12/31 12:00:46;;;;;;;105.97;29.43;;;;;;;;;;653248;212;994257;-68
2020/12/31 12:03:12;;;;;;;132.35;32.10;;;;;;;;;;652676;213;1021225;-68
2020/12/31 12:05:38;;;;;;;103.50;34.67;;;;;;;;;;658011;214;919364;-68
2020/12/31 12:08:05;;;;;;;157.60;37.30;;;;;;;;;;652799;212;921807;-69
2020/12/31 12:10:30;;;;;;;288.83;50.37;;;;;;;;;;653816;213;919379;-69
2020/12/31 12:12:56;;;;;;;198.73;42.13;;;;;;;;;;651045;212;920439;-68
2020/12/31 12:15:22;;;;;;;178.97;37.40;;;;;;;;;;658031;213;918043;-69
2020/12/31 12:17:49;;;;;;;198.20;39.23;;;;;;;;;;651287;214;920532;-69
2020/12/31 12:20:14;;;;;;;237.33;43.53;;;;;;;;;;653480;214;918992;-69
2020/12/31 12:22:40;;;;;;;145.07;32.17;;;;;;;;;;656544;213;917860;-69
2020/12/31 12:25:06;;;;;;;195.77;41.80;;;;;;;;;;656055;212;918662;-72
2020/12/31 12:27:32;;;;;;;136.50;36.40;;;;;;;;;;654654;212;920134;-71
2020/12/31 12:29:58;;;;;;;82.83;30.17;;;;;;;;;;660143;213;916460;-69
2020/12/31 12:32:24;;;;;;;144.10;40.37;;;;;;;;;;655146;212;915385;-69
2020/12/31 12:34:50;;;;;;;158.10;41.60;;;;;;;;;;649271;212;1328329;-68
2020/12/31 12:37:16;;;;;;;237.07;52.67;;;;;;;;;;654566;214;918015;-68
2020/12/31 12:39:42;;;;;;;126.00;42.33;;;;;;;;;;655594;214;918508;-69
2020/12/31 12:42:08;;;;;;;174.87;44.50;;;;;;;;;;655398;212;925180;-70
2020/12/31 12:44:33;;;;;;;130.50;38.83;;;;;;;;;;651576;212;994222;-69
2020/12/31 12:46:59;;;;;;;181.63;41.67;;;;;;;;;;657547;214;918892;-69
2020/12/31 12:49:25;;;;;;;210.47;39.13;;;;;;;;;;651647;213;932050;-69
2020/12/31 12:51:53;;;;;;;95.20;29.10;;;;;;;;;;655200;213;918773;-69
2020/12/31 12:54:19;;;;;;;125.80;33.30;;;;;;;;;;659365;212;652731;-68
2020/12/31 12:56:45;;;;;;;82.20;28.93;;;;;;;;;;656186;214;921752;-69
2020/12/31 12:59:11;;;;;;;206.80;35.13;;;;;;;;;;655562;212;625772;-69
2020/12/31 13:01:37;;;;;;;118.32;31.75;;;;;;;;;;655609;214;925390;-68
2020/12/31 13:04:05;;;;;;;201.47;36.83;;;;;;;;;;653498;213;918649;-69
2020/12/31 13:06:31;;;;;;;158.77;34.60;;;;;;;;;;655024;214;918524;-68
2020/12/31 13:08:57;;;;;;;150.90;34.77;;;;;;;;;;655863;213;918372;-69
2020/12/31 13:11:22;;;;;;;180.60;34.17;;;;;;;;;;656852;213;893858;-69
2020/12/31 13:13:48;;;;;;;178.40;37.57;;;;;;;;;;655307;214;919051;-69
2020/12/31 13:16:14;;;;;;;181.07;33.53;;;;;;;;;;655209;212;918660;-72
2020/12/31 13:18:40;;;;;;;80.47;29.60;;;;;;;;;;659139;213;838681;-69
2020/12/31 13:21:06;;;;;;;86.53;27.10;;;;;;;;;;655882;213;630025;-69
2020/12/31 13:23:32;;;;;;;108.73;31.70;;;;;;;;;;653777;213;919079;-69
2020/12/31 13:25:58;;;;;;;117.90;43.47;;;;;;;;;;651085;214;918597;-68
2020/12/31 13:28:24;;;;;;;150.60;41.57;;;;;;;;;;655078;213;919166;-69
2020/12/31 13:30:50;;;;;;;140.97;41.63;;;;;;;;;;651306;214;930048;-69
2020/12/31 13:33:15;;;;;;;110.87;36.23;;;;;;;;;;652615;214;918456;-70
2020/12/31 13:35:42;;;;;;;111.10;35.73;;;;;;;;;;656898;212;918821;-68
2020/12/31 13:38:07;;;;;;;89.53;28.42;;;;;;;;;;656469;212;918453;-68
2020/12/31 13:40:33;;;;;;;135.33;43.03;;;;;;;;;;653443;212;919200;-68
2020/12/31 13:42:59;;;;;;;139.43;36.90;;;;;;;;;;658534;212;918872;-68
2020/12/31 13:45:27;;;;;;;117.23;33.23;;;;;;;;;;654114;213;918971;-68
2020/12/31 13:47:53;;;;;;;103.13;36.07;;;;;;;;;;653183;212;919106;-69
2020/12/31 13:50:19;;;;;;;114.53;34.10;;;;;;;;;;654476;212;918497;-68